Time;durP1;ratioP1;P1;durP2;ratioP2;P2;SDS_P1;SDS_P2;PMS_P1;PMS_P2;Temp;Humidity;BMP_temperature;BMP_pressure;BME280_temperature;BME280_humidity;BME280_pressure;Samples;Min_cycle;Max_cycle;Signal;HPM_P1;HPM_P2
2022/04/10 00:00:49;;;;;;;0.45;0.40;;;;;;;7.51;67.42;100999.44;4970701;28;20381;-88
2022/04/10 00:03:19;;;;;;;0.65;0.30;;;;;;;7.42;67.90;101007.03;4988277;28;20140;-86
2022/04/10 00:05:46;;;;;;;0.50;0.40;;;;;;;7.77;67.27;101061.91;4970817;28;20138;-86
2022/04/10 00:08:15;;;;;;;1.17;0.40;;;;;;;7.55;67.04;101020.28;4986959;28;20128;-87
2022/04/10 00:10:42;;;;;;;0.75;0.30;;;;;;;7.63;66.68;101035.59;4990384;28;20100;-87
2022/04/10 00:13:10;;;;;;;0.40;0.40;;;;;;;7.00;67.44;100932.47;4974237;28;20050;-87
2022/04/10 00:15:37;;;;;;;1.75;0.65;;;;;;;7.20;66.16;100954.03;4991582;28;20093;-86
2022/04/10 00:18:04;;;;;;;1.45;0.32;;;;;;;7.36;66.79;100999.56;4991181;28;20564;-87
2022/04/10 00:20:31;;;;;;;0.40;0.40;;;;;;;8.39;67.77;101176.59;4973799;28;20042;-86
2022/04/10 00:22:58;;;;;;;0.30;0.30;;;;;;;6.88;67.15;100930.69;4974289;28;20331;-86
2022/04/10 00:25:24;;;;;;;0.57;0.47;;;;;;;7.84;67.02;101080.78;4975417;28;20057;-86
2022/04/10 00:27:51;;;;;;;0.60;0.50;;;;;;;7.23;66.42;100981.09;4994437;28;20128;-88
2022/04/10 00:30:18;;;;;;;0.45;0.45;;;;;;;7.42;66.63;101014.97;4995104;28;20046;-86
2022/04/10 00:32:44;;;;;;;0.90;0.35;;;;;;;8.18;65.97;101137.47;4975079;28;20054;-87
2022/04/10 00:35:12;;;;;;;0.60;0.30;;;;;;;7.43;66.91;101034.34;4991214;28;20169;-87
2022/04/10 00:37:39;;;;;;;0.30;0.30;;;;;;;7.09;66.96;100967.97;4991001;28;20121;-86
2022/04/10 00:40:08;;;;;;;0.60;0.57;;;;;;;8.32;66.25;101155.84;4971940;28;20547;-87
2022/04/10 00:42:40;;;;;;;1.05;0.90;;;;;;;7.99;67.02;101124.69;4954055;28;20141;-86
2022/04/10 00:45:08;;;;;;;0.85;0.73;;;;;;;8.27;67.29;101171.19;4971064;28;20114;-86
2022/04/10 00:47:35;;;;;;;0.50;0.50;;;;;;;7.32;67.94;101031.56;4953953;28;20089;-87
2022/04/10 00:50:06;;;;;;;0.50;0.50;;;;;;;7.55;67.68;101075.75;4970521;28;20125;-87
2022/04/10 00:52:35;;;;;;;0.60;0.60;;;;;;;7.45;68.38;101064.97;4953974;28;20161;-86
2022/04/10 00:55:02;;;;;;;0.82;0.60;;;;;;;6.63;67.96;100927.06;4953718;28;20116;-86
2022/04/10 00:57:29;;;;;;;0.63;0.60;;;;;;;7.04;67.48;100981.50;4971240;28;20078;-86
2022/04/10 00:59:56;;;;;;;0.60;0.60;;;;;;;7.52;67.01;101059.25;4954764;28;20055;-85
2022/04/10 01:02:23;;;;;;;0.50;0.50;;;;;;;7.47;66.71;101056.91;4955952;28;20070;-85
2022/04/10 01:04:49;;;;;;;0.60;0.60;;;;;;;7.55;66.82;101080.16;4975511;28;20066;-86
2022/04/10 01:07:18;;;;;;;0.65;0.65;;;;;;;7.87;66.87;101129.03;4958602;28;20050;-85
2022/04/10 01:09:45;;;;;;;0.63;0.45;;;;;;;7.74;67.35;101127.31;4975292;28;20074;-85
2022/04/10 01:12:12;;;;;;;0.50;0.50;;;;;;;7.92;66.92;101150.69;4976744;28;20484;-87
2022/04/10 01:14:40;;;;;;;0.70;0.60;;;;;;;7.88;67.89;101170.34;4971053;28;20397;-87
2022/04/10 01:17:09;;;;;;;0.50;0.45;;;;;;;7.86;67.39;101164.34;4953575;28;20106;-85
2022/04/10 01:19:41;;;;;;;0.50;0.50;;;;;;;8.04;66.89;101198.41;4969105;28;20423;-85
2022/04/10 01:22:09;;;;;;;0.50;0.35;;;;;;;7.66;67.72;101157.75;4969969;28;20475;-86
2022/04/10 01:24:40;;;;;;;0.85;0.73;;;;;;;7.40;68.00;101124.34;4969364;28;20054;-87
2022/04/10 01:27:07;;;;;;;0.77;0.77;;;;;;;7.59;68.50;101169.69;4953033;28;20138;-86
2022/04/10 01:29:34;;;;;;;0.60;0.35;;;;;;;6.09;68.07;100921.88;4969165;28;20074;-86
2022/04/10 01:32:00;;;;;;;0.55;0.55;;;;;;;6.93;68.58;101072.91;4952985;28;20134;-86
2022/04/10 01:34:27;;;;;;;0.60;0.57;;;;;;;6.83;68.14;101054.19;4970416;28;20060;-86
2022/04/10 01:36:56;;;;;;;1.98;0.85;;;;;;;6.12;68.92;100969.13;4953073;28;20489;-86
2022/04/10 01:39:22;;;;;;;0.50;0.50;;;;;;;7.65;68.80;101201.00;4970249;28;20149;-87
2022/04/10 01:41:50;;;;;;;0.70;0.70;;;;;;;7.40;69.34;101172.75;4968027;28;20046;-88
2022/04/10 01:44:17;;;;;;;0.93;0.85;;;;;;;7.64;69.18;101201.09;4972178;28;20141;-88
2022/04/10 01:46:44;;;;;;;0.63;0.63;;;;;;;6.92;69.01;101095.81;4988929;28;20459;-88
2022/04/10 01:49:11;;;;;;;2.70;0.75;;;;;;;6.86;69.19;101114.69;4972658;28;20050;-87
2022/04/10 01:51:38;;;;;;;0.80;0.75;;;;;;;5.95;68.75;100948.28;4989464;28;20058;-87
2022/04/10 01:54:06;;;;;;;1.08;0.82;;;;;;;7.16;68.76;101171.69;4988022;28;20649;-87
2022/04/10 01:56:33;;;;;;;1.08;0.80;;;;;;;7.21;68.88;101167.00;4989507;28;20130;-86
2022/04/10 01:59:00;;;;;;;1.05;0.80;;;;;;;7.56;68.38;101220.13;4972062;28;20048;-87
2022/04/10 02:01:27;;;;;;;0.95;0.60;;;;;;;7.24;68.77;101172.06;4989194;28;20488;-86
2022/04/10 02:03:54;;;;;;;0.60;0.60;;;;;;;7.46;69.17;101229.59;4971864;28;20054;-86
2022/04/10 02:06:21;;;;;;;1.25;0.88;;;;;;;5.75;68.47;100937.19;4971653;28;20050;-88
2022/04/10 02:08:48;;;;;;;3.13;1.50;;;;;;;7.49;68.78;101239.97;4988947;28;20054;-86
2022/04/10 02:11:17;;;;;;;1.27;1.13;;;;;;;6.36;68.68;101063.38;4971911;28;20050;-87
2022/04/10 02:13:45;;;;;;;1.85;1.50;;;;;;;7.32;68.44;101216.44;4987752;28;20160;-87
2022/04/10 02:16:16;;;;;;;0.95;0.85;;;;;;;7.37;68.99;101230.19;4971799;28;20077;-87
2022/04/10 02:18:43;;;;;;;1.70;1.60;;;;;;;6.18;69.15;101047.78;4971366;28;20089;-87
2022/04/10 02:21:12;;;;;;;1.92;1.83;;;;;;;6.59;69.33;101123.44;4971635;28;20117;-87
2022/04/10 02:23:38;;;;;;;2.35;2.15;;;;;;;7.35;69.31;101238.22;4971784;28;20092;-87
2022/04/10 02:26:05;;;;;;;2.60;2.40;;;;;;;7.48;68.40;101243.56;4971903;28;20047;-86
2022/04/10 02:28:32;;;;;;;3.42;3.13;;;;;;;7.06;68.34;101168.81;4986603;28;20605;-85
2022/04/10 02:30:58;;;;;;;3.35;2.70;;;;;;;7.35;69.60;101232.09;4971041;28;20046;-86
2022/04/10 02:33:25;;;;;;;3.33;3.03;;;;;;;7.33;69.13;101241.91;4970457;28;20053;-86
2022/04/10 02:35:52;;;;;;;3.00;2.78;;;;;;;7.15;69.53;101206.97;4970971;28;20085;-87
2022/04/10 02:38:19;;;;;;;3.05;2.75;;;;;;;7.20;69.04;101203.09;4970952;28;20047;-86
2022/04/10 02:40:45;;;;;;;2.53;2.33;;;;;;;7.44;68.65;101227.06;4964200;28;20049;-84
2022/04/10 02:43:13;;;;;;;2.83;2.63;;;;;;;7.30;68.95;101221.81;4952002;28;20082;-87
2022/04/10 02:45:44;;;;;;;2.47;2.28;;;;;;;7.48;68.36;101247.03;4968766;28;20050;-87
2022/04/10 02:48:10;;;;;;;2.05;1.92;;;;;;;7.58;68.60;101257.84;4951348;28;20047;-87
2022/04/10 02:50:38;;;;;;;2.35;2.15;;;;;;;7.06;68.50;101179.38;4951644;28;20408;-87
2022/04/10 02:53:06;;;;;;;2.60;2.40;;;;;;;7.35;68.05;101229.44;4967223;28;20055;-87
2022/04/10 02:55:33;;;;;;;3.63;2.97;;;;;;;7.15;69.18;101223.66;4951660;28;20093;-85
2022/04/10 02:57:59;;;;;;;3.15;2.85;;;;;;;7.39;68.63;101250.28;4968671;28;20067;-85
2022/04/10 03:00:26;;;;;;;2.60;2.40;;;;;;;6.55;68.90;101126.38;4968697;28;20297;-86
2022/04/10 03:02:53;;;;;;;3.47;3.17;;;;;;;7.37;68.79;101277.75;4953463;28;20320;-86
2022/04/10 03:05:20;;;;;;;3.40;3.10;;;;;;;7.03;68.66;101214.75;4976329;28;20146;-85
2022/04/10 03:07:49;;;;;;;3.55;3.25;;;;;;;7.32;69.12;101275.41;4965872;28;20055;-85
2022/04/10 03:10:16;;;;;;;4.20;3.65;;;;;;;7.28;68.59;101268.59;4982249;28;20055;-85
2022/04/10 03:12:44;;;;;;;3.85;3.55;;;;;;;6.98;68.84;101219.47;4976829;28;20054;-85
2022/04/10 03:15:11;;;;;;;5.00;4.60;;;;;;;7.31;68.73;101284.28;4954581;28;20082;-86
2022/04/10 03:17:38;;;;;;;5.97;5.32;;;;;;;6.76;68.47;101190.97;4969106;28;20060;-84
2022/04/10 03:20:05;;;;;;;5.30;4.90;;;;;;;7.34;67.88;101286.72;4951490;28;20133;-85
2022/04/10 03:22:31;;;;;;;6.05;5.55;;;;;;;7.12;68.05;101242.34;4950846;28;20085;-85
2022/04/10 03:24:58;;;;;;;5.35;4.95;;;;;;;7.19;68.52;101271.88;4958194;28;20043;-85
2022/04/10 03:27:25;;;;;;;6.60;5.80;;;;;;;7.27;68.47;101288.06;4955177;28;20051;-84
2022/04/10 03:29:51;;;;;;;6.47;4.78;;;;;;;6.92;68.71;101235.72;4952393;28;20069;-85
2022/04/10 03:32:18;;;;;;;4.97;4.57;;;;;;;7.04;68.32;101256.06;4950951;28;20051;-86
2022/04/10 03:34:44;;;;;;;6.55;4.80;;;;;;;7.17;67.60;101260.56;4967834;28;20116;-86
2022/04/10 03:37:11;;;;;;;4.57;4.20;;;;;;;7.31;68.03;101273.72;4950654;28;20473;-86
2022/04/10 03:39:38;;;;;;;5.57;4.10;;;;;;;6.95;67.37;101219.69;4967809;28;20061;-87
2022/04/10 03:42:04;;;;;;;5.47;3.92;;;;;;;6.97;67.31;101216.94;4967074;28;20133;-87
2022/04/10 03:44:31;;;;;;;5.65;4.22;;;;;;;7.18;67.24;101264.88;4988306;28;20132;-83
2022/04/10 03:46:58;;;;;;;4.80;4.40;;;;;;;7.00;67.66;101262.47;4991123;28;20620;-84
2022/04/10 03:49:25;;;;;;;5.65;5.15;;;;;;;7.21;67.61;101273.47;4973431;28;20535;-87
2022/04/10 03:51:51;;;;;;;6.57;6.07;;;;;;;7.26;68.12;101291.66;4990904;28;20141;-86
2022/04/10 03:54:18;;;;;;;6.13;5.53;;;;;;;7.39;67.43;101313.69;4973912;28;20050;-85
2022/04/10 03:59:30;;;;;;;4.78;4.38;;;;;;;7.13;67.16;101262.53;4991391;28;20065;-86
2022/04/10 04:01:56;;;;;;;5.28;4.88;;;;;;;7.18;67.67;101286.00;4973369;28;20141;-86
2022/04/10 04:04:23;;;;;;;5.13;4.63;;;;;;;7.18;67.19;101288.63;4974152;28;20078;-86
2022/04/10 04:06:50;;;;;;;4.35;4.05;;;;;;;6.93;67.17;101253.25;4989801;28;20088;-86
2022/04/10 04:09:16;;;;;;;4.28;3.88;;;;;;;7.22;67.03;101295.44;4973705;28;20078;-85
2022/04/10 04:11:43;;;;;;;4.07;3.78;;;;;;;7.23;67.50;101305.03;4973971;28;20129;-85
2022/04/10 04:14:11;;;;;;;3.63;3.33;;;;;;;7.33;67.15;101335.22;4989618;28;20046;-86
2022/04/10 04:16:37;;;;;;;3.40;3.10;;;;;;;7.23;67.13;101308.56;4973480;28;20065;-85
2022/04/10 04:19:04;;;;;;;2.63;2.42;;;;;;;7.13;67.49;101294.22;4990829;28;20599;-85
2022/04/10 04:21:31;;;;;;;2.50;2.30;;;;;;;7.40;67.01;101325.97;4989480;28;20500;-86
2022/04/10 04:23:57;;;;;;;2.95;2.72;;;;;;;6.42;66.91;101179.06;4973448;28;20137;-85
2022/04/10 04:26:24;;;;;;;2.55;2.35;;;;;;;6.08;67.22;101117.84;4991034;28;20141;-85
2022/04/10 04:28:50;;;;;;;2.30;2.10;;;;;;;6.25;67.25;101156.34;4973665;28;20055;-85
2022/04/10 04:31:17;;;;;;;2.20;1.95;;;;;;;7.26;67.46;101307.50;4973895;28;20133;-86
2022/04/10 04:33:44;;;;;;;2.55;1.80;;;;;;;7.09;66.90;101283.94;4973531;28;20437;-86
2022/04/10 04:36:10;;;;;;;1.70;1.60;;;;;;;7.35;66.31;101317.47;4990391;28;20074;-85
2022/04/10 04:38:37;;;;;;;1.73;1.63;;;;;;;7.27;66.43;101295.97;4972464;28;20050;-85
2022/04/10 04:41:04;;;;;;;1.70;1.60;;;;;;;7.33;66.75;101315.84;4963858;28;20479;-85
2022/04/10 04:43:30;;;;;;;1.08;1.00;;;;;;;7.70;65.34;101346.91;4953313;28;20046;-85
2022/04/10 04:45:58;;;;;;;1.67;1.25;;;;;;;7.15;66.18;101278.28;4953193;28;20154;-85
2022/04/10 04:48:29;;;;;;;0.70;0.70;;;;;;;7.70;65.79;101354.84;4969426;28;20078;-85
2022/04/10 04:50:57;;;;;;;2.38;1.23;;;;;;;7.47;66.00;101318.47;4953184;28;20157;-85
2022/04/10 04:53:24;;;;;;;1.27;1.17;;;;;;;7.39;65.91;101313.69;4953203;28;20053;-85
2022/04/10 04:55:51;;;;;;;0.68;0.65;;;;;;;7.70;65.48;101343.41;4941282;28;20047;-86
2022/04/10 04:58:21;;;;;;;0.93;0.82;;;;;;;7.24;65.73;101289.09;4948366;28;20649;-86
2022/04/10 05:00:48;;;;;;;1.60;0.60;;;;;;;7.30;65.53;101298.41;4951636;28;20053;-86
2022/04/10 05:03:18;;;;;;;0.65;0.63;;;;;;;7.35;65.84;101301.59;4951568;28;20058;-86
2022/04/10 05:05:44;;;;;;;1.38;0.90;;;;;;;7.68;66.26;101362.00;4969060;28;20179;-86
2022/04/10 05:08:11;;;;;;;0.65;0.63;;;;;;;7.60;65.43;101344.97;4951816;28;20058;-86
2022/04/10 05:10:37;;;;;;;1.85;0.65;;;;;;;7.80;64.49;101360.38;4951873;28;20489;-86
2022/04/10 05:13:08;;;;;;;0.68;0.60;;;;;;;7.90;65.00;101377.31;4953005;28;20094;-87
2022/04/10 05:15:35;;;;;;;1.25;0.80;;;;;;;7.86;64.43;101369.69;4953963;28;20092;-85
2022/04/10 05:18:02;;;;;;;0.88;0.65;;;;;;;7.96;64.49;101380.50;4955265;28;20101;-85
2022/04/10 05:20:28;;;;;;;1.00;0.63;;;;;;;7.86;63.93;101357.34;4954378;28;20070;-86
2022/04/10 05:22:56;;;;;;;0.90;0.73;;;;;;;7.66;64.07;101320.78;4970834;28;20090;-87
2022/04/10 05:25:23;;;;;;;3.83;0.85;;;;;;;7.41;64.41;101285.38;4969941;28;20109;-87
2022/04/10 05:27:50;;;;;;;1.38;0.80;;;;;;;8.30;63.43;101395.84;4952042;28;20093;-87
2022/04/10 05:30:16;;;;;;;0.65;0.65;;;;;;;7.62;63.57;101303.41;4968662;28;20113;-87
2022/04/10 05:32:43;;;;;;;0.85;0.40;;;;;;;6.88;63.07;101170.88;4968064;28;20141;-87
2022/04/10 05:35:11;;;;;;;0.63;0.60;;;;;;;8.11;63.46;101383.00;4968642;28;20101;-86
2022/04/10 05:37:38;;;;;;;0.65;0.60;;;;;;;8.34;62.96;101407.06;4968701;28;20062;-86
2022/04/10 05:40:05;;;;;;;0.77;0.70;;;;;;;7.02;62.86;101164.69;4951851;28;20050;-86
2022/04/10 05:42:32;;;;;;;1.25;0.70;;;;;;;8.02;63.07;101340.47;4968838;28;20552;-86
2022/04/10 05:45:02;;;;;;;0.60;0.60;;;;;;;7.27;63.13;101214.09;4972933;28;20133;-87
2022/04/10 05:47:29;;;;;;;5.57;0.63;;;;;;;7.06;61.79;101167.03;4973104;28;20047;-87
2022/04/10 05:49:56;;;;;;;0.68;0.50;;;;;;;7.17;62.23;101191.91;4972184;28;20051;-86
2022/04/10 05:52:22;;;;;;;1.05;0.77;;;;;;;7.27;61.34;101198.25;4953225;28;20085;-87
2022/04/10 05:54:49;;;;;;;0.50;0.50;;;;;;;8.72;61.91;101432.81;4968498;28;20065;-87
2022/04/10 05:57:16;;;;;;;1.20;0.73;;;;;;;7.73;60.89;101248.06;4968690;28;20449;-87
2022/04/10 05:59:43;;;;;;;0.90;0.45;;;;;;;7.81;60.16;101261.59;4951797;28;20142;-86
2022/04/10 06:02:09;;;;;;;1.00;0.73;;;;;;;7.63;60.01;101231.13;4951284;28;20501;-88
2022/04/10 06:04:36;;;;;;;1.85;0.45;;;;;;;8.75;60.50;101419.34;4969243;28;20054;-87
2022/04/10 06:07:03;;;;;;;0.77;0.73;;;;;;;7.83;60.33;101254.41;4952441;28;20101;-87
2022/04/10 06:09:30;;;;;;;0.82;0.50;;;;;;;8.39;60.18;101343.28;4967084;28;20058;-88
2022/04/10 06:11:57;;;;;;;1.00;0.40;;;;;;;7.28;61.12;101165.59;4969021;28;20642;-87
2022/04/10 06:14:23;;;;;;;1.63;0.70;;;;;;;8.94;61.36;101442.78;4969908;28;20101;-88
2022/04/10 06:16:50;;;;;;;1.27;0.70;;;;;;;7.22;61.07;101152.81;4968123;28;20074;-86
2022/04/10 06:19:18;;;;;;;0.85;0.63;;;;;;;8.30;60.40;101323.56;4967716;28;20089;-86
2022/04/10 06:21:45;;;;;;;0.45;0.45;;;;;;;7.74;59.12;101188.94;4967618;28;20089;-86
2022/04/10 06:24:11;;;;;;;5.25;1.10;;;;;;;8.68;59.25;101355.38;4952388;28;20051;-88
2022/04/10 06:26:38;;;;;;;2.28;0.70;;;;;;;8.42;59.43;101313.97;4968050;28;20467;-86
2022/04/10 06:29:05;;;;;;;3.42;0.60;;;;;;;9.13;58.96;101415.88;4968531;28;20599;-88
2022/04/10 06:31:32;;;;;;;0.50;0.50;;;;;;;8.14;59.27;101247.06;4969037;28;20253;-89
2022/04/10 06:33:58;;;;;;;0.80;0.80;;;;;;;8.54;59.41;101321.06;4969729;28;20054;-87
2022/04/10 06:36:25;;;;;;;0.88;0.77;;;;;;;8.66;60.44;101330.81;4952439;28;20190;-87
2022/04/10 06:38:52;;;;;;;0.70;0.70;;;;;;;8.30;60.22;101273.28;4968256;28;20413;-87
2022/04/10 06:41:19;;;;;;;0.88;0.70;;;;;;;8.90;58.53;101344.13;4971688;28;20050;-88
2022/04/10 06:43:46;;;;;;;0.75;0.75;;;;;;;9.40;59.16;101439.56;4959673;28;20063;-86
2022/04/10 06:46:13;;;;;;;1.08;0.80;;;;;;;9.29;57.92;101399.72;4973678;28;20105;-87
2022/04/10 06:48:39;;;;;;;2.13;1.00;;;;;;;9.16;58.48;101394.44;4953905;28;20493;-87
2022/04/10 06:51:06;;;;;;;1.40;0.60;;;;;;;8.86;58.27;101315.34;4968557;28;20061;-87
2022/04/10 06:53:33;;;;;;;1.55;0.50;;;;;;;9.52;58.37;101422.78;4968586;28;20576;-87
2022/04/10 06:56:00;;;;;;;0.65;0.65;;;;;;;8.52;56.20;101214.50;4969765;28;20047;-87
2022/04/10 06:58:26;;;;;;;1.15;0.90;;;;;;;8.72;56.22;101253.63;4953363;28;20047;-87
2022/04/10 07:00:53;;;;;;;0.73;0.73;;;;;;;9.43;56.38;101365.13;4953151;28;20081;-88
2022/04/10 07:03:21;;;;;;;1.48;0.70;;;;;;;9.35;56.05;101341.00;4952836;28;20058;-87
2022/04/10 07:05:49;;;;;;;1.08;0.95;;;;;;;8.82;55.36;101242.41;4970597;28;20109;-88
2022/04/10 07:08:16;;;;;;;0.80;0.80;;;;;;;9.86;55.26;101383.25;4970407;28;20525;-88
2022/04/10 07:10:43;;;;;;;1.55;0.70;;;;;;;8.78;55.46;101223.22;4971044;28;20055;-89
2022/04/10 07:13:10;;;;;;;0.80;0.80;;;;;;;8.83;54.92;101212.31;4970464;28;20043;-88
2022/04/10 07:15:37;;;;;;;0.85;0.82;;;;;;;9.01;55.07;101236.63;4952832;28;20046;-89
2022/04/10 07:18:05;;;;;;;2.63;0.73;;;;;;;9.29;54.65;101277.84;4970385;28;20084;-88
2022/04/10 07:20:32;;;;;;;2.30;0.90;;;;;;;10.27;54.96;101437.69;4970259;28;20154;-88
2022/04/10 07:25:44;;;;;;;0.60;0.60;;;;;;;9.40;54.79;101301.75;4971860;28;20082;-88
2022/04/10 07:28:11;;;;;;;1.17;0.68;;;;;;;10.35;53.89;101443.31;4955591;28;20055;-89
2022/04/10 07:30:38;;;;;;;1.50;0.75;;;;;;;10.19;54.62;101418.81;4976948;28;20089;-88
2022/04/10 07:33:05;;;;;;;0.60;0.60;;;;;;;10.32;54.86;101426.78;4976038;28;20058;-90
2022/04/10 07:35:40;;;;;;;2.28;0.82;;;;;;;10.28;55.05;101415.53;4978305;28;20480;-88
2022/04/10 07:38:07;;;;;;;0.77;0.77;;;;;;;9.66;54.82;101304.28;4961540;28;20086;-86
2022/04/10 07:40:35;;;;;;;1.80;0.70;;;;;;;10.03;54.53;101345.69;4966780;28;20074;-84
2022/04/10 07:43:02;;;;;;;1.10;0.90;;;;;;;10.49;54.35;101434.31;4990305;28;20129;-86
2022/04/10 07:48:17;;;;;;;1.08;1.05;;;;;;;10.46;55.91;101431.88;4987945;28;20061;-86
2022/04/10 07:50:43;;;;;;;1.05;0.90;;;;;;;10.39;56.14;101417.38;4988470;28;20133;-87
2022/04/10 07:53:10;;;;;;;1.20;1.10;;;;;;;10.50;56.96;101440.47;4987635;28;20046;-86
2022/04/10 07:55:37;;;;;;;5.10;1.20;;;;;;;10.51;56.54;101423.56;4951512;28;20089;-86
2022/04/10 07:58:03;;;;;;;1.15;1.05;;;;;;;10.69;56.15;101462.00;4951829;28;20156;-87
2022/04/10 08:00:32;;;;;;;1.50;0.90;;;;;;;10.55;55.83;101427.69;4968809;28;20058;-88
2022/04/10 08:02:59;;;;;;;1.33;0.90;;;;;;;10.60;55.79;101457.38;4950886;28;20479;-89
2022/04/10 08:05:26;;;;;;;2.33;1.13;;;;;;;10.19;55.83;101379.03;4929139;29;20055;-88
2022/04/10 08:07:54;;;;;;;2.00;1.27;;;;;;;10.84;53.83;101479.44;4930428;29;20142;-88
2022/04/10 08:10:21;;;;;;;1.15;1.05;;;;;;;10.49;55.09;101418.38;4929462;29;20492;-87
2022/04/10 08:12:48;;;;;;;1.08;1.00;;;;;;;10.93;54.09;101503.63;4929158;29;20487;-87
2022/04/10 08:15:14;;;;;;;1.63;1.30;;;;;;;10.62;53.72;101427.09;4930401;29;20094;-87
2022/04/10 08:17:41;;;;;;;1.40;1.30;;;;;;;10.95;53.97;101481.28;4930740;29;20083;-86
2022/04/10 08:20:08;;;;;;;1.80;1.65;;;;;;;10.96;54.34;101490.09;4930028;29;20569;-88
2022/04/10 08:22:36;;;;;;;2.47;1.45;;;;;;;10.66;53.76;101449.81;4929456;29;20237;-89
2022/04/10 08:25:08;;;;;;;2.80;1.73;;;;;;;9.78;54.26;101301.59;4931659;29;20047;-88
2022/04/10 08:27:35;;;;;;;;;;;;;;;10.99;55.80;101511.94;4935949;29;20052;-88
2022/04/10 08:30:03;;;;;;;1.73;1.63;;;;;;;10.81;56.10;101466.38;4932399;29;19923;-88
2022/04/10 08:32:37;;;;;;;1.50;1.40;;;;;;;11.09;55.31;101507.66;4947553;29;20135;-87
2022/04/10 08:35:04;;;;;;;1.55;1.45;;;;;;;11.08;55.26;101486.50;4944299;29;20208;-87
2022/04/10 08:37:40;;;;;;;1.50;1.27;;;;;;;11.13;54.88;101509.09;4939962;29;20075;-87
2022/04/10 08:40:24;;;;;;;1.77;1.65;;;;;;;10.78;54.39;101420.63;4937174;29;20142;-86
2022/04/10 08:42:58;;;;;;;2.13;1.75;;;;;;;10.14;54.88;101357.31;4953625;28;20218;-89
2022/04/10 08:45:26;;;;;;;3.92;2.00;;;;;;;10.38;56.02;101397.09;4954729;28;20307;-89
2022/04/10 08:47:55;;;;;;;2.05;1.63;;;;;;;10.30;55.43;101372.97;4952409;28;20159;-87
2022/04/10 08:50:24;;;;;;;2.13;1.90;;;;;;;10.72;55.32;101431.72;4952170;29;20342;-90
2022/04/10 08:52:54;;;;;;;1.45;1.35;;;;;;;10.98;55.29;101456.28;4952767;28;20512;-89
2022/04/10 08:55:21;;;;;;;1.75;1.52;;;;;;;10.40;54.87;101372.13;4952935;28;20437;-88
2022/04/10 08:57:55;;;;;;;1.88;1.58;;;;;;;10.50;54.35;101379.41;4952024;29;20422;-88
2022/04/10 09:00:24;;;;;;;1.83;1.50;;;;;;;10.78;55.28;101423.28;4951895;28;20055;-87
2022/04/10 09:02:54;;;;;;;1.85;1.75;;;;;;;11.44;54.94;101543.09;4967105;28;20047;-88
2022/04/10 09:05:25;;;;;;;1.63;1.40;;;;;;;10.14;54.71;101309.53;4952661;28;20495;-88
2022/04/10 09:08:16;;;;;;;2.55;1.52;;;;;;;10.34;55.29;101335.47;4951356;28;20675;-88
2022/04/10 09:10:58;;;;;;;1.88;1.77;;;;;;;11.71;55.44;101535.59;4967484;28;20501;-86
2022/04/10 09:13:38;;;;;;;2.72;1.60;;;;;;;10.41;54.60;101307.47;4951164;29;20054;-85
2022/04/10 09:16:16;;;;;;;2.40;1.80;;;;;;;11.14;55.02;101408.97;4951486;29;20055;-88
2022/04/10 09:18:55;;;;;;;1.75;1.65;;;;;;;11.89;54.84;101519.19;4951851;29;20333;-87
2022/04/10 09:21:28;;;;;;;6.18;1.95;;;;;;;12.06;52.84;101539.97;4953004;28;20458;-86
2022/04/10 09:23:56;;;;;;;1.88;1.77;;;;;;;12.07;52.35;101509.72;4935379;29;20139;-85
2022/04/10 09:26:23;;;;;;;1.50;1.40;;;;;;;12.10;52.67;101516.63;4950529;28;20399;-87
2022/04/10 09:28:51;;;;;;;2.00;1.90;;;;;;;12.09;53.10;101507.78;4950757;28;20530;-87
2022/04/10 09:31:34;;;;;;;1.88;1.77;;;;;;;11.43;52.37;101363.25;4955553;28;20351;-87
2022/04/10 09:34:09;;;;;;;1.42;1.33;;;;;;;12.82;50.88;101543.50;4950080;28;20140;-85
2022/04/10 09:36:42;;;;;;;1.95;1.23;;;;;;;12.36;49.83;101434.63;4950422;28;20051;-88
2022/04/10 09:39:29;;;;;;;1.20;1.10;;;;;;;13.15;50.58;101533.63;4951104;28;20055;-83
2022/04/10 09:42:09;;;;;;;1.40;1.30;;;;;;;12.16;48.73;101354.59;4933322;29;20067;-86
2022/04/10 09:45:22;;;;;;;1.42;1.20;;;;;;;13.47;49.40;101540.72;4931449;29;20059;-85
2022/04/10 09:48:34;;;;;;;1.77;1.33;;;;;;;12.46;47.67;101307.72;4930866;28;20063;-86
2022/04/10 09:51:10;;;;;;;1.40;1.30;;;;;;;13.58;47.19;101454.44;4932622;29;20067;-87
2022/04/10 09:54:07;;;;;;;1.50;1.20;;;;;;;13.62;47.62;101469.19;4932480;29;20375;-86
2022/04/10 09:56:36;;;;;;;1.55;1.15;;;;;;;13.07;47.53;101357.50;4932819;29;20083;-86
2022/04/10 09:59:04;;;;;;;2.60;1.42;;;;;;;13.26;47.21;101372.75;4937094;29;20059;-86
2022/04/10 10:01:31;;;;;;;1.45;1.30;;;;;;;13.25;45.34;101331.03;4937487;28;20055;-87
2022/04/10 10:03:59;;;;;;;1.95;1.40;;;;;;;13.55;46.42;101374.69;4966645;28;20117;-87
2022/04/10 10:06:46;;;;;;;1.60;1.40;;;;;;;14.07;46.76;101426.03;4968832;28;20082;-87
2022/04/10 10:09:14;;;;;;;2.88;1.40;;;;;;;13.32;46.71;101270.03;4968748;28;20065;-88
2022/04/10 10:11:59;;;;;;;1.55;1.38;;;;;;;14.43;45.89;101423.66;4953830;28;20130;-88
2022/04/10 10:14:29;;;;;;;2.03;1.30;;;;;;;14.80;45.30;101461.19;4974543;28;20251;-88
2022/04/10 10:16:58;;;;;;;1.52;1.40;;;;;;;14.79;44.91;101422.09;4959529;28;20568;-87
2022/04/10 10:19:28;;;;;;;3.25;1.40;;;;;;;14.43;45.04;101343.50;4975389;28;20047;-88
2022/04/10 10:21:56;;;;;;;1.20;1.10;;;;;;;14.68;43.84;101374.13;4971730;28;20424;-88
2022/04/10 10:24:52;;;;;;;1.40;1.30;;;;;;;15.76;41.24;101520.75;4969128;28;20054;-87
2022/04/10 10:27:41;;;;;;;3.53;1.40;;;;;;;15.80;41.50;101510.59;4951007;28;20098;-87
2022/04/10 10:30:26;;;;;;;1.52;1.42;;;;;;;15.90;41.49;101519.44;4952455;28;20070;-86
2022/04/10 10:33:09;;;;;;;1.75;1.65;;;;;;;15.78;42.74;101480.47;4952420;28;20477;-87
2022/04/10 10:35:48;;;;;;;1.73;1.42;;;;;;;16.06;41.38;101496.50;4969423;28;20077;-87
2022/04/10 10:38:32;;;;;;;5.93;1.45;;;;;;;16.09;41.15;101490.84;4952615;28;20133;-88
2022/04/10 10:41:11;;;;;;;1.00;0.90;;;;;;;14.87;35.04;101287.69;4962086;28;20054;-87
2022/04/10 10:43:40;;;;;;;1.00;0.85;;;;;;;16.40;35.31;101508.25;4987504;28;20042;-87
2022/04/10 10:46:21;;;;;;;2.88;0.95;;;;;;;16.24;32.38;101462.56;4972433;28;20054;-88
2022/04/10 10:49:10;;;;;;;1.88;1.20;;;;;;;16.54;35.74;101493.47;4987695;28;20046;-88
2022/04/10 10:51:36;;;;;;;3.88;1.45;;;;;;;16.39;36.54;101447.63;4971659;28;20144;-86
2022/04/10 10:54:08;;;;;;;1.17;1.08;;;;;;;16.87;34.42;101510.72;4988303;28;20509;-86
2022/04/10 10:56:37;;;;;;;;;;;;;;;16.87;36.76;101505.38;4988641;28;20362;-86
2022/04/10 10:59:36;;;;;;;1.25;1.10;;;;;;;16.44;32.62;101413.16;4972224;28;19922;-87
2022/04/10 11:02:13;;;;;;;;;;;;;;;17.06;32.55;101512.38;4988198;28;20512;-85
2022/04/10 11:05:04;;;;;;;2.08;1.40;;;;;;;16.50;33.29;101408.16;4988327;28;19922;-88
2022/04/10 11:07:30;;;;;;;1.40;1.30;;;;;;;16.55;34.74;101387.09;4971234;28;20054;-88
2022/04/10 11:10:04;;;;;;;1.80;1.50;;;;;;;16.29;34.10;101309.34;4988087;28;20038;-88
2022/04/10 11:12:47;;;;;;;1.10;1.10;;;;;;;16.43;32.69;101304.28;4955107;28;20058;-87
2022/04/10 11:15:34;;;;;;;1.52;1.33;;;;;;;17.37;33.31;101430.53;4987016;28;20053;-87
2022/04/10 11:18:28;;;;;;;1.40;1.25;;;;;;;16.77;34.24;101298.13;4970986;28;20054;-87
2022/04/10 11:21:21;;;;;;;3.30;1.20;;;;;;;17.56;33.22;101376.59;4971294;28;20062;-88
2022/04/10 11:23:57;;;;;;;1.40;1.02;;;;;;;17.00;31.04;101251.97;4971270;28;20054;-88
2022/04/10 11:26:27;;;;;;;1.60;1.10;;;;;;;17.60;30.59;101323.41;4987429;28;20060;-85
2022/04/10 11:29:08;;;;;;;1.52;1.30;;;;;;;18.35;30.67;101446.97;4987925;28;20050;-87
2022/04/10 11:31:40;;;;;;;4.13;3.72;;;;;;;18.66;31.08;101476.69;4990528;28;20089;-87
2022/04/10 11:34:08;;;;;;;1.48;1.38;;;;;;;17.33;31.27;101228.75;4976604;28;20086;-87
2022/04/10 11:36:47;;;;;;;1.35;1.10;;;;;;;18.77;28.62;101480.94;4992015;28;20046;-86
2022/04/10 11:39:16;;;;;;;1.67;1.23;;;;;;;18.55;30.84;101434.88;4989860;28;20050;-88
2022/04/10 11:41:45;;;;;;;1.75;1.27;;;;;;;18.90;30.84;101478.56;4966947;28;20057;-87
2022/04/10 11:44:15;;;;;;;1.58;1.20;;;;;;;18.81;30.32;101433.00;4967246;28;20055;-88
2022/04/10 11:46:45;;;;;;;2.33;2.13;;;;;;;18.89;30.06;101417.72;4951393;28;20051;-88
2022/04/10 11:49:12;;;;;;;1.90;1.77;;;;;;;18.97;28.54;101409.63;4967091;28;20086;-87
2022/04/10 11:51:52;;;;;;;1.52;1.38;;;;;;;19.18;27.83;101422.50;4951168;28;20055;-88